Millennium Tender — WDF6464 — position and weather

sailwx.info

Track history (hours):
 
Tides and Currents Weather Stations Pressure Air Temp Water Temp Dewpoint Dewpoint Depression Visibility Wind Speed Wind Dir Waves Ship Positions

Millennium Tender

Owner: Harley Marine Services, INC, Seattle, WA. More information available from US FCC via Universal Licensing System and Coast Guard Vessel Documentation Center.

Last reported at 2017-Sep-21 14:41 UTC. Time now 2017-Sep-23 07:45 UTC.
Position N 33°44' W 118°16'.

Type: Port tender. MMSI: 367474540.

Date/timePositionNaut miles runAvg speedWind from/ knotsBaromVisibWave heightAir tempDewpointWater temp
2017-Sep-21 14:41N 33°44' W 118°16'1 4.2
2017-Sep-21 14:29N 33°43' W 118°16'4 5.7
2017-Sep-21 13:48N 33°46' W 118°13'  
2017-Sep-19 02:06N 33°44' W 118°16'0 0.7
2017-Sep-19 01:59N 33°44' W 118°16'2 4.7
2017-Sep-19 01:28N 33°44' W 118°13'2 5.0
2017-Sep-19 01:00N 33°44' W 118°16'0 0.3
2017-Sep-19 00:28N 33°44' W 118°16'0 0.0
2017-Sep-18 02:04N 33°44' W 118°16'0 1.3
2017-Sep-18 01:57N 33°44' W 118°16'2 4.6
2017-Sep-18 01:30N 33°44' W 118°13'2 3.4
2017-Sep-18 00:54N 33°44' W 118°16'0 0.0
2017-Sep-16 02:03N 33°44' W 118°16'0 1.4
2017-Sep-16 01:58N 33°44' W 118°16'3 6.3
2017-Sep-16 01:29N 33°45' W 118°12'3 6.4
2017-Sep-16 01:00N 33°44' W 118°16'0 0.3
2017-Sep-16 00:30N 33°44' W 118°16'  
Track history (hours):
 
Tides and Currents Weather Stations Pressure Air Temp Water Temp Dewpoint Dewpoint Depression Visibility Wind Speed Wind Dir Waves Ship Positions

Millennium Tender

Owner: Harley Marine Services, INC, Seattle, WA. More information available from US FCC via Universal Licensing System and Coast Guard Vessel Documentation Center.

Last reported at 2017-Sep-21 14:41 UTC. Time now 2017-Sep-23 07:45 UTC.
Position N 33°44' W 118°16'.

Type: Port tender. MMSI: 367474540.

Date/timePositionNaut miles runAvg speedWind from/ knotsBaromVisibWave heightAir tempDewpointWater temp
2017-Sep-21 14:41N 33°44' W 118°16'1 4.2
2017-Sep-21 14:29N 33°43' W 118°16'4 5.7
2017-Sep-21 13:48N 33°46' W 118°13'  
2017-Sep-19 02:06N 33°44' W 118°16'0 0.7
2017-Sep-19 01:59N 33°44' W 118°16'2 4.7
2017-Sep-19 01:28N 33°44' W 118°13'2 5.0
2017-Sep-19 01:00N 33°44' W 118°16'0 0.3
2017-Sep-19 00:28N 33°44' W 118°16'0 0.0
2017-Sep-18 02:04N 33°44' W 118°16'0 1.3
2017-Sep-18 01:57N 33°44' W 118°16'2 4.6
2017-Sep-18 01:30N 33°44' W 118°13'2 3.4
2017-Sep-18 00:54N 33°44' W 118°16'0 0.0
2017-Sep-16 02:03N 33°44' W 118°16'0 1.4
2017-Sep-16 01:58N 33°44' W 118°16'3 6.3
2017-Sep-16 01:29N 33°45' W 118°12'3 6.4
2017-Sep-16 01:00N 33°44' W 118°16'0 0.3
2017-Sep-16 00:30N 33°44' W 118°16'  

Dump ship's entire track history